Kratze, Germany

4:57 AM CET on December 08, 2016 (GMT +0100)
Entenschnabel | | Change Station

Elev 154 ft 52.48 °N, 10.16 °E | Updated 7 minutes ago

Clear
Clear
38.8 °F
Feels Like 39 °F
N
0.6
Wind Variable Wind from SW
Gusts 4.3 mph

Today
High -- | Low -- °F
--% Chance of Precip.
Yesterday
High -- | Low -- °F
Precip. -- in
Pressure 30.33 in
Visibility -9999.0 miles
Clouds
Windchill 39 °F
Dew Point 35 °F
Humidity 86%
Rainfall in
Snow Depth Not available.
8:16 AM 4:06 PM
First Quarter, 59% visible
METAR EDDV 080350Z 23007KT CAVOK 08/02 Q1027 NOSIG
Pressure 30.33 in
Visibility -9999.0 miles
Clouds
Windchill 39 °F
Dew Point 35 °F
Humidity 86%
Rainfall in
Snow Depth Not available.
8:16 AM 4:06 PM
First Quarter, 59% visible
METAR EDDV 080350Z 23007KT CAVOK 08/02 Q1027 NOSIG

10-Day Weather Forecast

×

Almanac

Astronomy

Dec. 08, 2016 Rise Set
Actual Time
Civil Twilight
Nautical Twilight
Astronomical Twilight
Moon
Length of Visible Light
Length of Day
Tomorrow will be .
, % of the Moon is Illuminated

Today's Extremes

Country Highs Country Lows

Community

WunderPhotos

Upload Photos

1,956,259 photos uploaded!

WunderBlog® & News

Nearby

Air Quality

  Air Quality AQ Index Pollutant
Not available.

Snow Depth

Station Depth Elevation

Earthquake Activity

City Distance Mag. Time & Date
Minimum magnitude displayed is 2.5.

Coastal Water Temperatures

Place Temperature

Stations

Nearby Weather Stations

Station Location Temp. Windchill Dew Point Humidity Wind Precip. Elev Updated Type